sensor_id;sensor_type;location;lat;lon;timestamp;P1;durP1;ratioP1;P2;durP2;ratioP2
62610;SDS011;48683;48.084;17.272;2022-08-21T00:01:53;2.10;;;1.90;;
62610;SDS011;48683;48.084;17.272;2022-08-21T00:04:18;2.73;;;2.13;;
62610;SDS011;48683;48.084;17.272;2022-08-21T00:09:10;3.40;;;2.50;;
62610;SDS011;48683;48.084;17.272;2022-08-21T00:11:36;5.47;;;2.43;;
62610;SDS011;48683;48.084;17.272;2022-08-21T00:16:28;3.03;;;2.00;;
62610;SDS011;48683;48.084;17.272;2022-08-21T00:18:54;2.13;;;2.00;;
62610;SDS011;48683;48.084;17.272;2022-08-21T00:21:19;2.90;;;2.20;;
62610;SDS011;48683;48.084;17.272;2022-08-21T00:23:45;2.30;;;2.10;;
62610;SDS011;48683;48.084;17.272;2022-08-21T00:26:10;4.43;;;2.30;;
62610;SDS011;48683;48.084;17.272;2022-08-21T00:28:36;2.90;;;2.27;;
62610;SDS011;48683;48.084;17.272;2022-08-21T00:31:01;2.30;;;2.10;;
62610;SDS011;48683;48.084;17.272;2022-08-21T00:33:29;2.10;;;1.90;;
62610;SDS011;48683;48.084;17.272;2022-08-21T00:35:55;2.95;;;1.70;;
62610;SDS011;48683;48.084;17.272;2022-08-21T00:38:20;2.90;;;2.10;;
62610;SDS011;48683;48.084;17.272;2022-08-21T00:40:48;3.80;;;2.17;;
62610;SDS011;48683;48.084;17.272;2022-08-21T00:43:20;3.78;;;2.40;;
62610;SDS011;48683;48.084;17.272;2022-08-21T00:45:52;2.78;;;1.80;;
62610;SDS011;48683;48.084;17.272;2022-08-21T00:48:18;3.97;;;2.20;;
62610;SDS011;48683;48.084;17.272;2022-08-21T00:50:55;2.00;;;1.60;;
62610;SDS011;48683;48.084;17.272;2022-08-21T00:53:24;2.88;;;1.95;;
62610;SDS011;48683;48.084;17.272;2022-08-21T00:55:52;2.95;;;2.25;;
62610;SDS011;48683;48.084;17.272;2022-08-21T00:58:18;2.42;;;2.20;;
62610;SDS011;48683;48.084;17.272;2022-08-21T01:00:45;3.73;;;1.93;;
62610;SDS011;48683;48.084;17.272;2022-08-21T01:03:14;2.58;;;2.38;;
62610;SDS011;48683;48.084;17.272;2022-08-21T01:05:42;7.70;;;2.70;;
62610;SDS011;48683;48.084;17.272;2022-08-21T01:08:09;3.65;;;2.33;;
62610;SDS011;48683;48.084;17.272;2022-08-21T01:10:35;3.80;;;2.30;;
62610;SDS011;48683;48.084;17.272;2022-08-21T01:15:30;2.00;;;1.85;;
62610;SDS011;48683;48.084;17.272;2022-08-21T01:17:58;3.67;;;2.17;;
62610;SDS011;48683;48.084;17.272;2022-08-21T01:20:24;3.90;;;2.23;;
62610;SDS011;48683;48.084;17.272;2022-08-21T01:22:49;2.00;;;1.80;;
62610;SDS011;48683;48.084;17.272;2022-08-21T01:25:16;2.20;;;2.00;;
62610;SDS011;48683;48.084;17.272;2022-08-21T01:27:43;2.10;;;1.90;;
62610;SDS011;48683;48.084;17.272;2022-08-21T01:30:10;3.25;;;2.00;;
62610;SDS011;48683;48.084;17.272;2022-08-21T01:32:39;2.72;;;1.77;;
62610;SDS011;48683;48.084;17.272;2022-08-21T01:35:05;2.37;;;1.90;;
62610;SDS011;48683;48.084;17.272;2022-08-21T01:37:31;3.65;;;2.20;;
62610;SDS011;48683;48.084;17.272;2022-08-21T01:39:56;2.10;;;1.90;;
62610;SDS011;48683;48.084;17.272;2022-08-21T01:42:22;5.73;;;2.27;;
62610;SDS011;48683;48.084;17.272;2022-08-21T01:44:47;2.93;;;2.10;;
62610;SDS011;48683;48.084;17.272;2022-08-21T01:47:14;2.13;;;1.60;;
62610;SDS011;48683;48.084;17.272;2022-08-21T01:49:40;3.22;;;2.13;;
62610;SDS011;48683;48.084;17.272;2022-08-21T01:52:07;2.75;;;1.90;;
62610;SDS011;48683;48.084;17.272;2022-08-21T01:54:32;2.83;;;2.30;;
62610;SDS011;48683;48.084;17.272;2022-08-21T01:56:58;3.13;;;2.60;;
62610;SDS011;48683;48.084;17.272;2022-08-21T02:01:51;3.97;;;2.10;;
62610;SDS011;48683;48.084;17.272;2022-08-21T02:04:19;2.75;;;2.45;;
62610;SDS011;48683;48.084;17.272;2022-08-21T02:06:44;4.93;;;2.23;;
62610;SDS011;48683;48.084;17.272;2022-08-21T02:09:10;2.30;;;2.07;;
62610;SDS011;48683;48.084;17.272;2022-08-21T02:11:36;2.65;;;2.20;;
62610;SDS011;48683;48.084;17.272;2022-08-21T02:14:05;5.70;;;2.30;;
62610;SDS011;48683;48.084;17.272;2022-08-21T02:16:31;3.42;;;2.00;;
62610;SDS011;48683;48.084;17.272;2022-08-21T02:18:56;2.83;;;2.00;;
62610;SDS011;48683;48.084;17.272;2022-08-21T02:21:22;2.57;;;2.13;;
62610;SDS011;48683;48.084;17.272;2022-08-21T02:23:47;3.40;;;2.60;;
62610;SDS011;48683;48.084;17.272;2022-08-21T02:26:12;3.07;;;2.37;;
62610;SDS011;48683;48.084;17.272;2022-08-21T02:28:38;4.83;;;2.30;;
62610;SDS011;48683;48.084;17.272;2022-08-21T02:31:05;2.47;;;2.25;;
62610;SDS011;48683;48.084;17.272;2022-08-21T02:33:30;3.57;;;2.50;;
62610;SDS011;48683;48.084;17.272;2022-08-21T02:35:56;2.50;;;1.97;;
62610;SDS011;48683;48.084;17.272;2022-08-21T02:38:24;2.37;;;2.13;;
62610;SDS011;48683;48.084;17.272;2022-08-21T02:40:51;2.30;;;2.10;;
62610;SDS011;48683;48.084;17.272;2022-08-21T02:43:19;3.67;;;2.42;;
62610;SDS011;48683;48.084;17.272;2022-08-21T02:45:45;3.22;;;2.47;;
62610;SDS011;48683;48.084;17.272;2022-08-21T02:48:13;3.15;;;2.58;;
62610;SDS011;48683;48.084;17.272;2022-08-21T02:50:42;3.05;;;2.47;;
62610;SDS011;48683;48.084;17.272;2022-08-21T02:53:12;2.92;;;2.40;;
62610;SDS011;48683;48.084;17.272;2022-08-21T02:55:41;4.43;;;2.53;;
62610;SDS011;48683;48.084;17.272;2022-08-21T02:58:09;3.35;;;2.72;;
62610;SDS011;48683;48.084;17.272;2022-08-21T03:00:35;2.85;;;2.20;;
62610;SDS011;48683;48.084;17.272;2022-08-21T03:03:02;2.80;;;2.53;;
62610;SDS011;48683;48.084;17.272;2022-08-21T03:05:29;3.28;;;2.35;;
62610;SDS011;48683;48.084;17.272;2022-08-21T03:07:56;3.63;;;2.63;;
62610;SDS011;48683;48.084;17.272;2022-08-21T03:10:23;3.05;;;2.80;;
62610;SDS011;48683;48.084;17.272;2022-08-21T03:12:48;3.47;;;3.17;;
62610;SDS011;48683;48.084;17.272;2022-08-21T03:15:14;3.07;;;2.83;;
62610;SDS011;48683;48.084;17.272;2022-08-21T03:17:42;3.05;;;2.80;;
62610;SDS011;48683;48.084;17.272;2022-08-21T03:20:08;3.20;;;3.00;;
62610;SDS011;48683;48.084;17.272;2022-08-21T03:22:34;3.85;;;3.42;;
62610;SDS011;48683;48.084;17.272;2022-08-21T03:25:00;4.10;;;3.70;;
62610;SDS011;48683;48.084;17.272;2022-08-21T03:27:27;3.53;;;3.28;;
62610;SDS011;48683;48.084;17.272;2022-08-21T03:29:53;3.90;;;3.60;;
62610;SDS011;48683;48.084;17.272;2022-08-21T03:32:19;3.58;;;3.38;;
62610;SDS011;48683;48.084;17.272;2022-08-21T03:34:45;3.57;;;3.27;;
62610;SDS011;48683;48.084;17.272;2022-08-21T03:37:11;3.20;;;3.00;;
62610;SDS011;48683;48.084;17.272;2022-08-21T03:39:36;4.60;;;3.67;;
62610;SDS011;48683;48.084;17.272;2022-08-21T03:42:02;3.27;;;2.97;;
62610;SDS011;48683;48.084;17.272;2022-08-21T03:44:27;3.53;;;3.23;;
62610;SDS011;48683;48.084;17.272;2022-08-21T03:46:56;3.35;;;3.05;;
62610;SDS011;48683;48.084;17.272;2022-08-21T03:49:22;2.72;;;2.53;;
62610;SDS011;48683;48.084;17.272;2022-08-21T03:51:48;4.03;;;3.13;;
62610;SDS011;48683;48.084;17.272;2022-08-21T03:54:13;3.20;;;2.90;;
62610;SDS011;48683;48.084;17.272;2022-08-21T03:56:39;4.87;;;3.10;;
62610;SDS011;48683;48.084;17.272;2022-08-21T03:59:04;3.30;;;2.67;;
62610;SDS011;48683;48.084;17.272;2022-08-21T04:01:31;3.13;;;2.80;;
62610;SDS011;48683;48.084;17.272;2022-08-21T04:03:56;4.27;;;3.10;;
62610;SDS011;48683;48.084;17.272;2022-08-21T04:06:22;3.40;;;2.90;;
62610;SDS011;48683;48.084;17.272;2022-08-21T04:08:47;7.87;;;2.60;;
62610;SDS011;48683;48.084;17.272;2022-08-21T04:11:13;3.40;;;3.10;;
62610;SDS011;48683;48.084;17.272;2022-08-21T04:13:39;2.97;;;2.72;;
62610;SDS011;48683;48.084;17.272;2022-08-21T04:16:05;2.77;;;2.57;;
62610;SDS011;48683;48.084;17.272;2022-08-21T04:18:31;3.23;;;2.93;;
62610;SDS011;48683;48.084;17.272;2022-08-21T04:20:57;3.23;;;2.90;;
62610;SDS011;48683;48.084;17.272;2022-08-21T04:23:24;3.22;;;2.92;;
62610;SDS011;48683;48.084;17.272;2022-08-21T04:25:51;3.97;;;2.50;;
62610;SDS011;48683;48.084;17.272;2022-08-21T04:28:18;2.88;;;2.40;;
62610;SDS011;48683;48.084;17.272;2022-08-21T04:30:43;3.60;;;2.53;;
62610;SDS011;48683;48.084;17.272;2022-08-21T04:33:09;2.90;;;2.60;;
62610;SDS011;48683;48.084;17.272;2022-08-21T04:35:35;3.53;;;2.17;;
62610;SDS011;48683;48.084;17.272;2022-08-21T04:38:00;2.83;;;2.47;;
62610;SDS011;48683;48.084;17.272;2022-08-21T04:40:26;2.63;;;2.37;;
62610;SDS011;48683;48.084;17.272;2022-08-21T04:45:28;2.63;;;2.42;;
62610;SDS011;48683;48.084;17.272;2022-08-21T04:47:56;2.22;;;2.10;;
62610;SDS011;48683;48.084;17.272;2022-08-21T04:50:29;3.55;;;2.40;;
62610;SDS011;48683;48.084;17.272;2022-08-21T04:53:20;3.20;;;2.40;;
62610;SDS011;48683;48.084;17.272;2022-08-21T04:55:48;2.55;;;2.35;;
62610;SDS011;48683;48.084;17.272;2022-08-21T04:58:17;2.42;;;2.22;;
62610;SDS011;48683;48.084;17.272;2022-08-21T05:00:45;2.65;;;2.45;;
62610;SDS011;48683;48.084;17.272;2022-08-21T05:03:12;2.60;;;2.25;;
62610;SDS011;48683;48.084;17.272;2022-08-21T05:05:39;2.72;;;2.53;;
62610;SDS011;48683;48.084;17.272;2022-08-21T05:08:05;2.67;;;2.30;;
62610;SDS011;48683;48.084;17.272;2022-08-21T05:10:33;2.47;;;2.30;;
62610;SDS011;48683;48.084;17.272;2022-08-21T05:12:59;2.60;;;2.40;;
62610;SDS011;48683;48.084;17.272;2022-08-21T05:15:25;2.50;;;2.30;;
62610;SDS011;48683;48.084;17.272;2022-08-21T05:17:50;2.10;;;2.00;;
62610;SDS011;48683;48.084;17.272;2022-08-21T05:20:16;2.30;;;2.10;;
62610;SDS011;48683;48.084;17.272;2022-08-21T05:22:41;2.10;;;2.00;;
62610;SDS011;48683;48.084;17.272;2022-08-21T05:25:08;2.40;;;2.20;;
62610;SDS011;48683;48.084;17.272;2022-08-21T05:27:34;4.93;;;2.83;;
62610;SDS011;48683;48.084;17.272;2022-08-21T05:30:00;3.27;;;2.37;;
62610;SDS011;48683;48.084;17.272;2022-08-21T05:32:26;2.35;;;2.08;;
62610;SDS011;48683;48.084;17.272;2022-08-21T05:34:53;7.20;;;2.50;;
62610;SDS011;48683;48.084;17.272;2022-08-21T05:37:18;7.87;;;2.53;;
62610;SDS011;48683;48.084;17.272;2022-08-21T05:39:44;2.60;;;2.23;;
62610;SDS011;48683;48.084;17.272;2022-08-21T05:42:09;2.73;;;2.47;;
62610;SDS011;48683;48.084;17.272;2022-08-21T05:44:34;4.20;;;2.27;;
62610;SDS011;48683;48.084;17.272;2022-08-21T05:47:07;2.73;;;2.20;;
62610;SDS011;48683;48.084;17.272;2022-08-21T05:49:33;2.45;;;2.25;;
62610;SDS011;48683;48.084;17.272;2022-08-21T05:52:00;2.90;;;2.30;;
62610;SDS011;48683;48.084;17.272;2022-08-21T05:54:26;2.30;;;2.10;;
62610;SDS011;48683;48.084;17.272;2022-08-21T05:56:51;2.00;;;1.90;;
62610;SDS011;48683;48.084;17.272;2022-08-21T05:59:17;2.77;;;2.10;;
62610;SDS011;48683;48.084;17.272;2022-08-21T06:01:43;3.77;;;2.33;;
62610;SDS011;48683;48.084;17.272;2022-08-21T06:04:10;2.97;;;2.33;;
62610;SDS011;48683;48.084;17.272;2022-08-21T06:06:35;3.37;;;2.03;;
62610;SDS011;48683;48.084;17.272;2022-08-21T06:09:01;3.33;;;2.03;;
62610;SDS011;48683;48.084;17.272;2022-08-21T06:11:27;1.83;;;1.73;;
62610;SDS011;48683;48.084;17.272;2022-08-21T06:13:53;2.10;;;2.00;;
62610;SDS011;48683;48.084;17.272;2022-08-21T06:16:18;2.33;;;2.13;;
62610;SDS011;48683;48.084;17.272;2022-08-21T06:18:44;2.10;;;1.90;;
62610;SDS011;48683;48.084;17.272;2022-08-21T06:21:10;2.10;;;1.90;;
62610;SDS011;48683;48.084;17.272;2022-08-21T06:23:37;1.88;;;1.75;;
62610;SDS011;48683;48.084;17.272;2022-08-21T06:26:03;2.78;;;1.58;;
62610;SDS011;48683;48.084;17.272;2022-08-21T06:33:21;1.67;;;1.50;;
62610;SDS011;48683;48.084;17.272;2022-08-21T06:35:47;1.47;;;1.37;;
62610;SDS011;48683;48.084;17.272;2022-08-21T06:38:13;4.45;;;1.60;;
62610;SDS011;48683;48.084;17.272;2022-08-21T06:40:39;3.17;;;1.50;;
62610;SDS011;48683;48.084;17.272;2022-08-21T06:43:05;3.10;;;1.40;;
62610;SDS011;48683;48.084;17.272;2022-08-21T06:45:33;4.10;;;1.48;;
62610;SDS011;48683;48.084;17.272;2022-08-21T06:47:59;1.53;;;1.43;;
62610;SDS011;48683;48.084;17.272;2022-08-21T06:50:24;1.73;;;1.20;;
62610;SDS011;48683;48.084;17.272;2022-08-21T06:52:49;1.50;;;1.40;;
62610;SDS011;48683;48.084;17.272;2022-08-21T06:55:27;1.00;;;1.00;;
62610;SDS011;48683;48.084;17.272;2022-08-21T06:57:53;1.40;;;1.30;;
62610;SDS011;48683;48.084;17.272;2022-08-21T07:00:18;2.30;;;1.50;;
62610;SDS011;48683;48.084;17.272;2022-08-21T07:02:44;1.65;;;1.55;;
62610;SDS011;48683;48.084;17.272;2022-08-21T07:05:09;1.40;;;1.30;;
62610;SDS011;48683;48.084;17.272;2022-08-21T07:07:35;1.47;;;1.37;;
62610;SDS011;48683;48.084;17.272;2022-08-21T07:10:00;1.10;;;1.10;;
62610;SDS011;48683;48.084;17.272;2022-08-21T07:12:26;1.10;;;1.10;;
62610;SDS011;48683;48.084;17.272;2022-08-21T07:14:52;1.50;;;1.40;;
62610;SDS011;48683;48.084;17.272;2022-08-21T07:17:17;1.00;;;1.00;;
62610;SDS011;48683;48.084;17.272;2022-08-21T07:19:42;1.23;;;0.90;;
62610;SDS011;48683;48.084;17.272;2022-08-21T07:22:08;1.17;;;1.00;;
62610;SDS011;48683;48.084;17.272;2022-08-21T07:24:33;2.23;;;0.83;;
62610;SDS011;48683;48.084;17.272;2022-08-21T07:26:58;1.00;;;0.93;;
62610;SDS011;48683;48.084;17.272;2022-08-21T07:29:24;0.97;;;0.80;;
62610;SDS011;48683;48.084;17.272;2022-08-21T07:31:49;0.87;;;0.80;;
62610;SDS011;48683;48.084;17.272;2022-08-21T07:34:15;0.90;;;0.90;;
62610;SDS011;48683;48.084;17.272;2022-08-21T07:36:40;1.10;;;1.00;;
62610;SDS011;48683;48.084;17.272;2022-08-21T07:39:05;0.90;;;0.90;;
62610;SDS011;48683;48.084;17.272;2022-08-21T07:41:31;0.80;;;0.80;;
62610;SDS011;48683;48.084;17.272;2022-08-21T07:43:57;0.70;;;0.70;;
62610;SDS011;48683;48.084;17.272;2022-08-21T07:46:23;1.67;;;0.77;;
62610;SDS011;48683;48.084;17.272;2022-08-21T07:51:16;1.02;;;0.90;;
62610;SDS011;48683;48.084;17.272;2022-08-21T07:56:12;1.00;;;1.00;;
62610;SDS011;48683;48.084;17.272;2022-08-21T07:58:38;4.22;;;1.25;;
62610;SDS011;48683;48.084;17.272;2022-08-21T08:01:04;2.43;;;0.90;;
62610;SDS011;48683;48.084;17.272;2022-08-21T08:03:30;0.85;;;0.85;;
62610;SDS011;48683;48.084;17.272;2022-08-21T08:05:56;1.10;;;1.00;;
62610;SDS011;48683;48.084;17.272;2022-08-21T08:08:21;1.33;;;1.00;;
62610;SDS011;48683;48.084;17.272;2022-08-21T08:10:47;0.93;;;0.93;;
62610;SDS011;48683;48.084;17.272;2022-08-21T08:13:14;1.23;;;1.13;;
62610;SDS011;48683;48.084;17.272;2022-08-21T08:15:40;1.10;;;1.10;;
62610;SDS011;48683;48.084;17.272;2022-08-21T08:18:05;1.10;;;1.10;;
62610;SDS011;48683;48.084;17.272;2022-08-21T08:20:30;1.20;;;1.03;;
62610;SDS011;48683;48.084;17.272;2022-08-21T08:22:56;1.13;;;1.13;;
62610;SDS011;48683;48.084;17.272;2022-08-21T08:25:22;1.07;;;0.90;;
62610;SDS011;48683;48.084;17.272;2022-08-21T08:27:49;1.75;;;1.13;;
62610;SDS011;48683;48.084;17.272;2022-08-21T08:30:15;2.90;;;1.10;;
62610;SDS011;48683;48.084;17.272;2022-08-21T08:32:43;1.70;;;1.15;;
62610;SDS011;48683;48.084;17.272;2022-08-21T08:35:09;1.63;;;1.05;;
62610;SDS011;48683;48.084;17.272;2022-08-21T08:37:36;1.38;;;1.27;;
62610;SDS011;48683;48.084;17.272;2022-08-21T08:40:05;1.23;;;1.10;;
62610;SDS011;48683;48.084;17.272;2022-08-21T08:42:33;1.00;;;1.00;;
62610;SDS011;48683;48.084;17.272;2022-08-21T08:47:32;1.60;;;1.13;;
62610;SDS011;48683;48.084;17.272;2022-08-21T08:50:06;1.40;;;1.30;;
62610;SDS011;48683;48.084;17.272;2022-08-21T08:53:04;1.40;;;1.30;;
62610;SDS011;48683;48.084;17.272;2022-08-21T08:55:36;1.13;;;1.10;;
62610;SDS011;48683;48.084;17.272;2022-08-21T08:58:07;2.85;;;1.50;;
62610;SDS011;48683;48.084;17.272;2022-08-21T09:00:46;1.30;;;1.30;;
62610;SDS011;48683;48.084;17.272;2022-08-21T09:03:14;3.03;;;1.40;;
62610;SDS011;48683;48.084;17.272;2022-08-21T09:11:03;1.75;;;1.65;;
62610;SDS011;48683;48.084;17.272;2022-08-21T09:19:28;1.85;;;1.50;;
62610;SDS011;48683;48.084;17.272;2022-08-21T09:22:17;1.83;;;1.70;;
62610;SDS011;48683;48.084;17.272;2022-08-21T09:25:38;1.92;;;1.38;;
62610;SDS011;48683;48.084;17.272;2022-08-21T09:27:44;1.90;;;1.80;;
62610;SDS011;48683;48.084;17.272;2022-08-21T09:30:10;2.13;;;1.63;;
62610;SDS011;48683;48.084;17.272;2022-08-21T09:32:37;1.58;;;1.48;;
62610;SDS011;48683;48.084;17.272;2022-08-21T09:35:11;1.80;;;1.70;;
62610;SDS011;48683;48.084;17.272;2022-08-21T09:37:58;2.03;;;1.88;;
62610;SDS011;48683;48.084;17.272;2022-08-21T09:43:04;2.20;;;2.00;;
62610;SDS011;48683;48.084;17.272;2022-08-21T09:45:35;1.80;;;1.63;;
62610;SDS011;48683;48.084;17.272;2022-08-21T09:48:14;1.37;;;1.33;;
62610;SDS011;48683;48.084;17.272;2022-08-21T09:50:43;2.15;;;1.70;;
62610;SDS011;48683;48.084;17.272;2022-08-21T09:53:17;1.85;;;1.70;;
62610;SDS011;48683;48.084;17.272;2022-08-21T09:55:52;1.80;;;1.70;;
62610;SDS011;48683;48.084;17.272;2022-08-21T09:58:47;3.55;;;2.03;;
62610;SDS011;48683;48.084;17.272;2022-08-21T10:01:17;1.95;;;1.77;;
62610;SDS011;48683;48.084;17.272;2022-08-21T10:03:47;3.75;;;1.85;;
62610;SDS011;48683;48.084;17.272;2022-08-21T10:06:23;2.42;;;1.90;;
62610;SDS011;48683;48.084;17.272;2022-08-21T10:08:50;1.83;;;1.73;;
62610;SDS011;48683;48.084;17.272;2022-08-21T10:11:16;3.88;;;1.83;;
62610;SDS011;48683;48.084;17.272;2022-08-21T10:13:45;2.17;;;1.83;;
62610;SDS011;48683;48.084;17.272;2022-08-21T10:16:43;2.10;;;2.00;;
62610;SDS011;48683;48.084;17.272;2022-08-21T10:19:12;3.55;;;2.08;;
62610;SDS011;48683;48.084;17.272;2022-08-21T10:21:52;2.63;;;1.88;;
62610;SDS011;48683;48.084;17.272;2022-08-21T10:24:27;2.10;;;2.00;;
62610;SDS011;48683;48.084;17.272;2022-08-21T10:39:57;1.92;;;1.75;;
62610;SDS011;48683;48.084;17.272;2022-08-21T10:42:28;2.30;;;2.10;;
62610;SDS011;48683;48.084;17.272;2022-08-21T10:45:09;1.70;;;1.60;;
62610;SDS011;48683;48.084;17.272;2022-08-21T10:47:41;1.70;;;1.60;;
62610;SDS011;48683;48.084;17.272;2022-08-21T10:50:19;1.90;;;1.80;;
62610;SDS011;48683;48.084;17.272;2022-08-21T10:52:58;2.00;;;1.90;;
62610;SDS011;48683;48.084;17.272;2022-08-21T10:55:33;1.75;;;1.65;;
62610;SDS011;48683;48.084;17.272;2022-08-21T10:58:08;1.70;;;1.60;;
62610;SDS011;48683;48.084;17.272;2022-08-21T11:03:35;1.50;;;1.40;;
62610;SDS011;48683;48.084;17.272;2022-08-21T11:06:24;1.27;;;1.25;;
62610;SDS011;48683;48.084;17.272;2022-08-21T11:08:56;1.30;;;1.20;;
62610;SDS011;48683;48.084;17.272;2022-08-21T11:11:40;1.48;;;1.38;;
62610;SDS011;48683;48.084;17.272;2022-08-21T11:16:42;1.20;;;1.10;;
62610;SDS011;48683;48.084;17.272;2022-08-21T11:22:35;1.77;;;1.52;;
62610;SDS011;48683;48.084;17.272;2022-08-21T11:25:07;1.80;;;1.70;;
62610;SDS011;48683;48.084;17.272;2022-08-21T11:27:40;1.60;;;1.50;;
62610;SDS011;48683;48.084;17.272;2022-08-21T11:30:09;1.45;;;1.20;;
62610;SDS011;48683;48.084;17.272;2022-08-21T11:43:21;1.00;;;1.00;;
62610;SDS011;48683;48.084;17.272;2022-08-21T11:45:56;1.00;;;1.00;;
62610;SDS011;48683;48.084;17.272;2022-08-21T11:51:15;0.77;;;0.77;;
62610;SDS011;48683;48.084;17.272;2022-08-21T11:54:36;1.70;;;0.70;;
62610;SDS011;48683;48.084;17.272;2022-08-21T11:57:03;7.25;;;0.85;;
62610;SDS011;48683;48.084;17.272;2022-08-21T12:02:18;1.98;;;0.80;;
62610;SDS011;48683;48.084;17.272;2022-08-21T12:04:55;1.20;;;0.60;;
62610;SDS011;48683;48.084;17.272;2022-08-21T12:07:29;1.73;;;0.88;;
62610;SDS011;48683;48.084;17.272;2022-08-21T12:10:03;0.60;;;0.60;;
62610;SDS011;48683;48.084;17.272;2022-08-21T12:12:32;1.40;;;0.60;;
62610;SDS011;48683;48.084;17.272;2022-08-21T12:20:43;0.90;;;0.63;;
62610;SDS011;48683;48.084;17.272;2022-08-21T12:23:26;2.85;;;0.60;;
62610;SDS011;48683;48.084;17.272;2022-08-21T12:26:55;1.40;;;0.40;;
62610;SDS011;48683;48.084;17.272;2022-08-21T12:28:51;2.70;;;0.50;;
62610;SDS011;48683;48.084;17.272;2022-08-21T12:31:35;1.17;;;0.50;;
62610;SDS011;48683;48.084;17.272;2022-08-21T12:34:01;1.40;;;0.50;;
62610;SDS011;48683;48.084;17.272;2022-08-21T12:36:44;1.23;;;0.70;;
62610;SDS011;48683;48.084;17.272;2022-08-21T12:39:15;0.95;;;0.55;;
62610;SDS011;48683;48.084;17.272;2022-08-21T12:41:48;0.70;;;0.60;;
62610;SDS011;48683;48.084;17.272;2022-08-21T12:44:28;0.65;;;0.60;;
62610;SDS011;48683;48.084;17.272;2022-08-21T12:50:02;1.13;;;0.50;;
62610;SDS011;48683;48.084;17.272;2022-08-21T12:52:34;0.50;;;0.50;;
62610;SDS011;48683;48.084;17.272;2022-08-21T12:55:05;1.80;;;0.52;;
62610;SDS011;48683;48.084;17.272;2022-08-21T12:57:35;1.63;;;0.50;;
62610;SDS011;48683;48.084;17.272;2022-08-21T13:00:03;3.90;;;0.70;;
62610;SDS011;48683;48.084;17.272;2022-08-21T13:02:38;0.98;;;0.70;;
62610;SDS011;48683;48.084;17.272;2022-08-21T13:05:08;0.60;;;0.60;;
62610;SDS011;48683;48.084;17.272;2022-08-21T13:07:42;1.42;;;0.60;;
62610;SDS011;48683;48.084;17.272;2022-08-21T13:10:20;4.13;;;0.55;;
62610;SDS011;48683;48.084;17.272;2022-08-21T13:13:02;0.75;;;0.75;;
62610;SDS011;48683;48.084;17.272;2022-08-21T13:15:35;0.70;;;0.70;;
62610;SDS011;48683;48.084;17.272;2022-08-21T13:18:03;0.80;;;0.60;;
62610;SDS011;48683;48.084;17.272;2022-08-21T13:20:31;1.10;;;0.80;;
62610;SDS011;48683;48.084;17.272;2022-08-21T13:23:21;0.80;;;0.70;;
62610;SDS011;48683;48.084;17.272;2022-08-21T13:25:49;1.95;;;0.60;;
62610;SDS011;48683;48.084;17.272;2022-08-21T13:28:14;6.63;;;0.73;;
62610;SDS011;48683;48.084;17.272;2022-08-21T13:30:53;0.77;;;0.77;;
62610;SDS011;48683;48.084;17.272;2022-08-21T13:33:21;0.90;;;0.75;;
62610;SDS011;48683;48.084;17.272;2022-08-21T13:35:50;2.30;;;0.80;;
62610;SDS011;48683;48.084;17.272;2022-08-21T13:40:57;2.10;;;0.90;;
62610;SDS011;48683;48.084;17.272;2022-08-21T13:43:27;1.20;;;0.82;;
62610;SDS011;48683;48.084;17.272;2022-08-21T13:45:56;4.13;;;0.80;;
62610;SDS011;48683;48.084;17.272;2022-08-21T13:48:24;0.63;;;0.63;;
62610;SDS011;48683;48.084;17.272;2022-08-21T13:50:52;0.57;;;0.50;;
62610;SDS011;48683;48.084;17.272;2022-08-21T13:53:33;0.60;;;0.60;;
62610;SDS011;48683;48.084;17.272;2022-08-21T13:56:27;0.70;;;0.70;;
62610;SDS011;48683;48.084;17.272;2022-08-21T13:58:56;0.70;;;0.63;;
62610;SDS011;48683;48.084;17.272;2022-08-21T14:03:56;0.60;;;0.60;;
62610;SDS011;48683;48.084;17.272;2022-08-21T14:06:28;0.70;;;0.60;;
62610;SDS011;48683;48.084;17.272;2022-08-21T14:09:00;1.77;;;0.70;;
62610;SDS011;48683;48.084;17.272;2022-08-21T14:11:33;0.88;;;0.82;;
62610;SDS011;48683;48.084;17.272;2022-08-21T14:14:02;0.52;;;0.50;;
62610;SDS011;48683;48.084;17.272;2022-08-21T14:16:44;0.70;;;0.70;;
62610;SDS011;48683;48.084;17.272;2022-08-21T14:19:17;1.20;;;0.63;;
62610;SDS011;48683;48.084;17.272;2022-08-21T14:21:45;1.23;;;0.80;;
62610;SDS011;48683;48.084;17.272;2022-08-21T14:24:25;0.73;;;0.70;;
62610;SDS011;48683;48.084;17.272;2022-08-21T14:26:56;1.35;;;1.10;;
62610;SDS011;48683;48.084;17.272;2022-08-21T14:29:28;2.58;;;1.20;;
62610;SDS011;48683;48.084;17.272;2022-08-21T14:31:59;1.85;;;0.80;;
62610;SDS011;48683;48.084;17.272;2022-08-21T14:34:35;1.20;;;1.08;;
62610;SDS011;48683;48.084;17.272;2022-08-21T14:37:00;0.97;;;0.80;;
62610;SDS011;48683;48.084;17.272;2022-08-21T14:39:26;0.70;;;0.70;;
62610;SDS011;48683;48.084;17.272;2022-08-21T14:41:51;0.70;;;0.70;;
62610;SDS011;48683;48.084;17.272;2022-08-21T14:44:17;2.87;;;0.70;;
62610;SDS011;48683;48.084;17.272;2022-08-21T14:46:44;0.70;;;0.70;;
62610;SDS011;48683;48.084;17.272;2022-08-21T14:49:11;1.45;;;0.80;;
62610;SDS011;48683;48.084;17.272;2022-08-21T14:51:36;1.27;;;0.87;;
62610;SDS011;48683;48.084;17.272;2022-08-21T14:54:03;1.10;;;1.00;;
62610;SDS011;48683;48.084;17.272;2022-08-21T14:56:29;0.65;;;0.65;;
62610;SDS011;48683;48.084;17.272;2022-08-21T14:58:55;2.30;;;0.93;;
62610;SDS011;48683;48.084;17.272;2022-08-21T15:01:26;1.20;;;0.88;;
62610;SDS011;48683;48.084;17.272;2022-08-21T15:03:52;0.80;;;0.77;;
62610;SDS011;48683;48.084;17.272;2022-08-21T15:06:17;1.00;;;1.00;;
62610;SDS011;48683;48.084;17.272;2022-08-21T15:08:43;1.90;;;1.53;;
62610;SDS011;48683;48.084;17.272;2022-08-21T15:11:08;1.50;;;1.40;;
62610;SDS011;48683;48.084;17.272;2022-08-21T15:13:37;1.98;;;1.20;;
62610;SDS011;48683;48.084;17.272;2022-08-21T15:16:03;1.73;;;1.48;;
62610;SDS011;48683;48.084;17.272;2022-08-21T15:18:29;4.70;;;1.50;;
62610;SDS011;48683;48.084;17.272;2022-08-21T15:20:55;2.75;;;1.70;;
62610;SDS011;48683;48.084;17.272;2022-08-21T15:23:21;2.13;;;1.33;;
62610;SDS011;48683;48.084;17.272;2022-08-21T15:25:47;1.53;;;1.30;;
62610;SDS011;48683;48.084;17.272;2022-08-21T15:28:13;1.95;;;1.20;;
62610;SDS011;48683;48.084;17.272;2022-08-21T15:30:41;1.75;;;1.50;;
62610;SDS011;48683;48.084;17.272;2022-08-21T15:33:07;2.05;;;1.33;;
62610;SDS011;48683;48.084;17.272;2022-08-21T15:35:33;1.50;;;1.40;;
62610;SDS011;48683;48.084;17.272;2022-08-21T15:37:59;5.32;;;1.73;;
62610;SDS011;48683;48.084;17.272;2022-08-21T15:40:24;1.60;;;1.40;;
62610;SDS011;48683;48.084;17.272;2022-08-21T15:42:50;1.60;;;1.50;;
62610;SDS011;48683;48.084;17.272;2022-08-21T15:45:20;1.95;;;1.40;;
62610;SDS011;48683;48.084;17.272;2022-08-21T15:47:46;1.97;;;1.87;;
62610;SDS011;48683;48.084;17.272;2022-08-21T15:50:14;1.60;;;1.50;;
62610;SDS011;48683;48.084;17.272;2022-08-21T15:52:40;2.33;;;1.70;;
62610;SDS011;48683;48.084;17.272;2022-08-21T15:55:05;3.17;;;1.70;;
62610;SDS011;48683;48.084;17.272;2022-08-21T15:57:31;2.85;;;1.90;;
62610;SDS011;48683;48.084;17.272;2022-08-21T16:00:00;1.58;;;1.30;;
62610;SDS011;48683;48.084;17.272;2022-08-21T16:05:00;2.90;;;1.80;;
62610;SDS011;48683;48.084;17.272;2022-08-21T16:07:26;1.60;;;1.50;;
62610;SDS011;48683;48.084;17.272;2022-08-21T16:09:52;1.93;;;1.67;;
62610;SDS011;48683;48.084;17.272;2022-08-21T16:12:36;1.80;;;1.43;;
62610;SDS011;48683;48.084;17.272;2022-08-21T16:15:05;2.10;;;1.52;;
62610;SDS011;48683;48.084;17.272;2022-08-21T16:17:34;3.03;;;1.42;;